Latest Weather Observations for Inner Beacon

IDQ60801

Issued at 6:32 pm EST Thursday 11 February 2016 (issued every 30 minutes, with the page automatically refreshed every 10 minutes)

About weather observations | Map of weather stations | Latest weather observations for QLD | Other Formats
Station Details ID: 040926 Name: INNER RECIPROCAL MARKER Lat: -27.26 Lon: 153.24 Height: 20.0 m
Data from the previous 72 hours. | See also: Recent months for locations in Queensland
Date/Time
EST
Temp
°C
App
Temp
°C
Dew
Point
Rel
Hum
%
Delta-T
°C
Wind Press
QNH
hPa
Press
MSL
hPa
Rain
since 9 am
mm
Dir
 
Spd
km/h
Gust
km/h
Spd
kts
Gust
kts
11/06:30pm - - - - - ESE 35 41 19 22 - - -
11/06:00pm - - - - - ESE 35 41 19 22 - - -
11/05:30pm - - - - - ESE 37 44 20 24 - - -
11/05:00pm - - - - - ESE 35 43 19 23 - - -
11/04:30pm - - - - - ESE 35 41 19 22 - - -
11/04:00pm - - - - - ESE 33 43 18 23 - - -
11/03:30pm - - - - - ESE 33 39 18 21 - - -
11/03:00pm - - - - - ESE 32 37 17 20 - - -
11/02:30pm - - - - - SE 30 33 16 18 - - -
11/02:00pm - - - - - SE 32 35 17 19 - - -
11/01:30pm - - - - - SE 32 37 17 20 - - -
11/01:00pm - - - - - SSE 26 39 14 21 - - -
11/12:30pm - - - - - SE 28 37 15 20 - - -
11/12:00pm - - - - - SSE 26 32 14 17 - - -
11/11:30am - - - - - SSE 26 33 14 18 - - -
11/11:00am - - - - - SSE 26 30 14 16 - - -
11/10:30am - - - - - SSE 26 32 14 17 - - -
11/10:00am - - - - - SSE 26 30 14 16 - - -
11/09:30am - - - - - S 26 30 14 16 - - -
11/09:00am - - - - - S 24 28 13 15 - - -
11/08:30am - - - - - SSE 24 28 13 15 - - -
11/08:00am - - - - - S 24 30 13 16 - - -
11/07:30am - - - - - S 22 26 12 14 - - -
11/07:00am - - - - - S 26 30 14 16 - - -
11/06:30am - - - - - S 24 30 13 16 - - -
11/06:00am - - - - - S 22 24 12 13 - - -
11/05:30am - - - - - S 22 26 12 14 - - -
11/05:00am - - - - - S 24 28 13 15 - - -
11/04:30am - - - - - S 24 28 13 15 - - -
11/04:00am - - - - - S 24 30 13 16 - - -
11/03:30am - - - - - S 26 30 14 16 - - -
11/03:00am - - - - - S 26 30 14 16 - - -
11/02:30am - - - - - S 26 32 14 17 - - -
11/02:00am - - - - - S 24 28 13 15 - - -
11/01:30am - - - - - S 22 26 12 14 - - -
11/01:00am - - - - - S 22 26 12 14 - - -
11/12:30am - - - - - SE 24 30 13 16 - - -
11/12:00am - - - - - SE 24 30 13 16 - - -
 
Date/Time
EST
Temp
°C
App
Temp
°C
Dew
Point
Rel
Hum
%
Delta-T
°C
Wind Press
QNH
hPa
Press
MSL
hPa
Rain
since 9 am
mm
Dir
 
Spd
km/h
Gust
km/h
Spd
kts
Gust
kts
10/11:30pm - - - - - SE 24 30 13 16 - - -
10/11:00pm - - - - - SSE 22 28 12 15 - - -
10/10:30pm - - - - - SSE 26 32 14 17 - - -
10/10:00pm - - - - - SE 32 37 17 20 - - -
10/09:30pm - - - - - SSE 32 37 17 20 - - -
10/09:00pm - - - - - SSE 33 39 18 21 - - -
10/08:30pm - - - - - SSE 37 43 20 23 - - -
10/08:00pm - - - - - SSE 41 46 22 25 - - -
10/07:30pm - - - - - SE 41 48 22 26 - - -
10/07:00pm - - - - - SE 39 46 21 25 - - -
10/06:30pm - - - - - SE 35 43 19 23 - - -
10/06:00pm - - - - - SE 37 41 20 22 - - -
10/05:30pm - - - - - SE 37 44 20 24 - - -
10/05:00pm - - - - - SE 33 41 18 22 - - -
10/04:30pm - - - - - ESE 35 43 19 23 - - -
10/04:00pm - - - - - ESE 33 41 18 22 - - -
10/03:30pm - - - - - SE 35 43 19 23 - - -
10/03:00pm - - - - - SE 35 41 19 22 - - -
10/02:30pm - - - - - SE 32 39 17 21 - - -
10/02:00pm - - - - - SE 41 50 22 27 - - -
10/01:53pm - - - - - SE 39 50 21 27 - - -
10/01:30pm - - - - - SSE 33 39 18 21 - - -
10/01:00pm - - - - - SSE 35 43 19 23 - - -
10/12:30pm - - - - - SSE 35 43 19 23 - - -
10/12:00pm - - - - - SSE 30 33 16 18 - - -
10/11:30am - - - - - SSE 30 35 16 19 - - -
10/11:00am - - - - - SSE 33 39 18 21 - - -
10/10:30am - - - - - SSE 35 41 19 22 - - -
10/10:00am - - - - - SSE 37 44 20 24 - - -
10/09:30am - - - - - SSE 35 43 19 23 - - -
10/09:00am - - - - - S 37 43 20 23 - - -
10/08:30am - - - - - SSE 32 39 17 21 - - -
10/08:00am - - - - - SSE 32 37 17 20 - - -
10/07:30am - - - - - S 32 37 17 20 - - -
10/07:00am - - - - - S 32 39 17 21 - - -
10/06:30am - - - - - S 30 39 16 21 - - -
10/06:00am - - - - - S 35 43 19 23 - - -
10/05:30am - - - - - S 32 41 17 22 - - -
10/05:00am - - - - - S 33 39 18 21 - - -
10/04:30am - - - - - S 33 39 18 21 - - -
10/04:00am - - - - - S 32 37 17 20 - - -
10/03:30am - - - - - S 30 37 16 20 - - -
10/03:00am - - - - - S 30 35 16 19 - - -
10/02:30am - - - - - S 28 32 15 17 - - -
10/02:00am - - - - - S 26 28 14 15 - - -
10/01:30am - - - - - S 30 35 16 19 - - -
10/01:00am - - - - - S 32 35 17 19 - - -
10/12:30am - - - - - S 30 39 16 21 - - -
10/12:00am - - - - - SSE 35 44 19 24 - - -
 
Date/Time
EST
Temp
°C
App
Temp
°C
Dew
Point
Rel
Hum
%
Delta-T
°C
Wind Press
QNH
hPa
Press
MSL
hPa
Rain
since 9 am
mm
Dir
 
Spd
km/h
Gust
km/h
Spd
kts
Gust
kts
09/11:30pm - - - - - S 33 43 18 23 - - -
09/11:00pm - - - - - SSE 35 43 19 23 - - -
09/10:30pm - - - - - SSE 39 50 21 27 - - -
09/10:24pm - - - - - SSE 33 44 18 24 - - -
09/10:02pm - - - - - SSE 32 44 17 24 - - -
09/10:00pm - - - - - S 30 43 16 23 - - -
09/09:30pm - - - - - S 33 41 18 22 - - -
09/09:00pm - - - - - S 39 44 21 24 - - -
09/08:30pm - - - - - S 43 52 23 28 - - -
09/08:00pm - - - - - SSE 46 54 25 29 - - -
09/07:30pm - - - - - SSE 43 52 23 28 - - -
09/07:00pm - - - - - SSE 44 54 24 29 - - -
09/06:30pm - - - - - SSE 46 54 25 29 - - -
09/06:00pm - - - - - SSE 48 57 26 31 - - -
09/05:30pm - - - - - SSE 48 56 26 30 - - -
09/05:00pm - - - - - SSE 46 57 25 31 - - -
09/04:30pm - - - - - SSE 44 52 24 28 - - -
09/04:00pm - - - - - SSE 43 54 23 29 - - -
09/03:30pm - - - - - SSE 43 50 23 27 - - -
09/03:00pm - - - - - SSE 44 56 24 30 - - -
09/02:30pm - - - - - SSE 44 56 24 30 - - -
09/02:00pm - - - - - SSE 44 52 24 28 - - -
09/01:30pm - - - - - SSE 43 48 23 26 - - -
09/01:00pm - - - - - SSE 43 48 23 26 - - -
09/12:30pm - - - - - SSE 44 50 24 27 - - -
09/12:00pm - - - - - SSE 41 48 22 26 - - -
09/11:30am - - - - - SSE 43 50 23 27 - - -
09/11:00am - - - - - SSE 44 54 24 29 - - -
09/10:30am - - - - - SSE 39 46 21 25 - - -
09/10:00am - - - - - SSE 37 46 20 25 - - -
09/09:30am - - - - - SSE 37 43 20 23 - - -
09/09:00am - - - - - SSE 39 46 21 25 - - -
09/08:30am - - - - - S 39 48 21 26 - - -
09/08:00am - - - - - S 35 44 19 24 - - -
09/07:30am - - - - - S 28 35 15 19 - - -
09/07:00am - - - - - S 26 32 14 17 - - -
09/06:30am - - - - - S 30 35 16 19 - - -
09/06:00am - - - - - SSW 24 28 13 15 - - -
09/05:30am - - - - - S 26 33 14 18 - - -
09/05:00am - - - - - S 30 39 16 21 - - -
09/04:30am - - - - - S 26 32 14 17 - - -
09/04:00am - - - - - S 28 33 15 18 - - -
09/03:30am - - - - - S 35 46 19 25 - - -
09/03:00am - - - - - S 32 37 17 20 - - -
09/02:30am - - - - - S 30 35 16 19 - - -
09/02:00am - - - - - S 30 33 16 18 - - -
09/01:30am - - - - - S 39 50 21 27 - - -
09/01:00am - - - - - S 35 39 19 21 - - -
09/12:30am - - - - - SSE 39 48 21 26 - - -
09/12:00am - - - - - S 37 46 20 25 - - -
 
Date/Time
EST
Temp
°C
App
Temp
°C
Dew
Point
Rel
Hum
%
Delta-T
°C
Wind Press
QNH
hPa
Press
MSL
hPa
Rain
since 9 am
mm
Dir
 
Spd
km/h
Gust
km/h
Spd
kts
Gust
kts
08/11:30pm - - - - - SSE 43 50 23 27 - - -
08/11:00pm - - - - - S 33 39 18 21 - - -
08/10:30pm - - - - - SSE 39 48 21 26 - - -
08/10:00pm - - - - - S 35 43 19 23 - - -
08/09:30pm - - - - - S 41 46 22 25 - - -
08/09:00pm - - - - - SSE 37 46 20 25 - - -
08/08:30pm - - - - - SSE 43 50 23 27 - - -
08/08:00pm - - - - - SSE 43 52 23 28 - - -
08/07:30pm - - - - - SE 44 50 24 27 - - -
08/07:00pm - - - - - SE 44 52 24 28 - - -

Other Formats:

Comma delimited format used in spreadsheet applications
http://www.bom.gov.au/fwo/IDQ60801/IDQ60801.94590.axf

JavaScript Object Notation format (JSON) in row-major order
http://www.bom.gov.au/fwo/IDQ60801/IDQ60801.94590.json